Calgary, Canada
Current Conditions -  °F | °C
As of 3:00 AM on Saturday 25 Oct 2014 (Local Time) from CYYC Reporting Station
Broken Clouds Broken Clouds  
Wind Chill:   Ceiling: 20000
Heat Index:   Visibility: 15mi
Dew Point: -8°   Wind: 0mph
Humidity: 55%   Direction: NA
Pressure: 30.04"   Gusts: NA
Location:  51.05°N, 114.06°W
Report Text: CYYC 250900Z 00000KT 15SM BKN200 M00/M08 A3004 RMK CI6 SLP203
Loading
Personal Weather Stations






























Interactive Weather Map
Tropical Storm Tracking
New forecast layout! Learn more

10-Day Weather Forecast

Advertisements
Track Severe Weather on mobile